NY Terminal Aviation Weather Discussion (AFD) - Prepared: 148 PM EDT TUE APR 28 2015
HIGH PRESSURE REMAINS OVER THE REGION.

VFR. N WINDS BACKING TOWARDS NW THIS AFTN AND DIMINISHING SLIGHTLY 
BY LATE. SEA BREEZES HAVE FORMED AND WILL PROBABLY CONFINED TO 
KISP/KBDR/KGON. STILL A CHANCE THAT IT PASSES THROUGH KJFK.

5 Day General Aviation Outlook:

.OUTLOOK FOR 18Z WEDNESDAY THROUGH SUNDAY...
.WEDS...VFR. AFTN SEA BREEZES. 
.THURSDAY-THURSDAY NIGHT...VFR. NE WINDS G15-25KT POSSIBLE LATE 
THURSDAY NIGHT.
.FRIDAY-FRIDAY NIGHT...LOW CHANCE MVFR OR LOWER IN ANY SHRA. NE-N 
WINDS G25-30KT POSSIBLE.
.SATURDAY...VFR.
.SUNDAY...VFR.


NY Metro Terminal Aviation Weather Summary: (Explanation of Color Coding)
NOTE: All Wind Directions are TRUE (add 13 degrees for magnetic directions). Tail and Crosswind Calculations do account for the magnetic deviation of runways.

Click on the Airport Below for Specific Information at that Terminal

TAF Overview JFK TAF LGA TAF EWR TAF TEB TAF HPN TAF ISP TAF

Jump to AirSpace Impacts Section Condensed "lite" version of SPA page
**************************************************************************************
KJFK Terminal Weather: (Wind Directions Are True, Except Where Noted, ADD 13 degrees for Magnetic)

5MIN KJFK 281825Z 36017G25KT 10SM CLR 20/M01 A2975 170 
     24 800 010/17G25 RMK AO2 PK WND 36026/1809
5MIN KJFK 281820Z 01019G25KT 10SM CLR 20/M01 A2976 170 
     24 800 030/19G25 RMK AO2 PK WND 36026/1809
********************************************
****        MAGNETIC DIRECTIONS         ****
********************************************
KJFK 04/28/2015 18:29:13 GMT 020 15 G25KT
KJFK 04/28/2015 18:27:13 GMT 020 15 G25KT
KJFK 04/28/2015 18:25:13 GMT 360 18 G25KT
KJFK 04/28/2015 18:23:13 GMT 020 18 G24KT
KJFK 04/28/2015 18:21:13 GMT 020 17 G24KT
KJFK 04/28/2015 18:19:13 GMT 020 18 G24KT
KJFK 04/28/2015 18:17:13 GMT 360 17 G24KT
KJFK 04/28/2015 18:15:13 GMT 350 12 G24KT
KJFK 04/28/2015 18:13:13 GMT 360 15 G24KT
KJFK 04/28/2015 18:11:13 GMT 010 20 G24KT
SAUS70 KJFK 281800 RRN
METAR KJFK 281751Z 35015G24KT 10SM FEW070 19/M01 A2977 RMK AO2 SLP079
     T01941011 10194 20128 58015
FTNA35 KJFK 281734 RRB
KJFK 281727Z 2818/2924 34015G23KT P6SM SCT060
     FM290000 30011G18KT P6SM FEW060
     FM290300 30008KT P6SM FEW250
     FM291400 29011KT P6SM FEW060
     FM292100 20011KT P6SM SCT070
KJFK FCSTER COMMENTS: WINDS NORTH OF 310 MAG THROUGH THE DAY. CHANCE 
OF SEA BREEZE MOVING THROUGH NEAR 23-00Z - WINDS WOULD THEN SHIFT S-
SSW.
 
jfk

JFK Hourly Forecast Temperature (C)

JFK Hourly TMPS
**************************************************************************************
KLGA Terminal Weather: (Wind Directions Are True, Except Where Noted, ADD 13 degrees for Magnetic)

5MIN KLGA 281825Z 02012G16KT 10SM CLR 18/01 A2975 190 
     31 700 040/12G16 RMK AO2
5MIN KLGA 281820Z 35011G14KT 10SM CLR 18/02 A2975 180 
     34 700 010/11G14 RMK AO2
********************************************
****        MAGNETIC DIRECTIONS         ****
********************************************
KLGA 04/28/2015 18:29:58 GMT 050 14 KT
KLGA 04/28/2015 18:27:58 GMT 040 15 KT
KLGA 04/28/2015 18:25:57 GMT 040 13 G17KT
KLGA 04/28/2015 18:23:57 GMT 030 14 KT
KLGA 04/28/2015 18:21:58 GMT 020 12 G17KT
KLGA 04/28/2015 18:19:58 GMT 020 08 KT
KLGA 04/28/2015 18:17:58 GMT 020 12 KT
KLGA 04/28/2015 18:15:58 GMT 020 15 KT
KLGA 04/28/2015 18:13:58 GMT 040 14 KT
KLGA 04/28/2015 18:11:57 GMT 030 12 KT
SAUS70 KLGA 281800
METAR KLGA 281751Z 01012G19KT 10SM FEW060 18/02 A2976 RMK AO2 SLP076
     T01780017 10178 20117 58014
FTUS31 KLGA 281733 RRA
KLGA 281727Z 2818/2918 35014G22KT P6SM SCT060
     FM290000 32010G17KT P6SM FEW060
     FM290300 31008KT P6SM FEW250
     FM291400 32010KT P6SM FEW060
KLGA FCSTER COMMENTS: WINDS NORTH OF 310 MAG THROUGH THE DAY.

lga


**************************************************************************************

KEWR Terminal Weather: (Wind Directions Are True, Except Where Noted, ADD 13 degrees for Magnetic)

5MIN KEWR 281825Z 34011G20KT 10SM SCT085 21/M01 A2974 
     180 23 1000 360/11G20 RMK AO2
5MIN KEWR 281820Z 34011G20KT 10SM FEW085 21/01 A2975 
     180 25 1000 350/11G20 RMK AO2
********************************************
****        MAGNETIC DIRECTIONS         ****
********************************************
KEWR 04/28/2015 18:28:59 GMT 360 07 G22KT
KEWR 04/28/2015 18:26:59 GMT 340 13 G22KT
KEWR 04/28/2015 18:24:59 GMT 340 13 G22KT
KEWR 04/28/2015 18:22:59 GMT 350 12 G22KT
KEWR 04/28/2015 18:21:36 GMT 360 17 G22KT
KEWR 04/28/2015 18:19:36 GMT 360 14 G20KT
KEWR 04/28/2015 18:17:36 GMT 020 13 KT
KEWR 04/28/2015 18:15:36 GMT 030 10 G15KT
KEWR 04/28/2015 18:13:36 GMT 030 09 KT
KEWR 04/28/2015 18:11:36 GMT 010 07 KT
SAUS70 KEWR 281800
METAR KEWR 281751Z 35008G15KT 10SM BKN075 20/01 A2976 RMK AO2 SLP076
     T02000006 10200 20122 58017
FTUS31 KEWR 281733
KEWR 281727Z 2818/2924 33013G21KT P6SM SCT060
     FM290000 32010G18KT P6SM FEW060
     FM290200 30007KT P6SM FEW250
     FM291400 31010KT P6SM SCT070
KEWR FCSTER COMMENTS: WINDS NORTH OF 310 MAG THROUGH THE DAY.

ewr
Afternoon EWR Haze Potential Forecast: KEWR Haze Forecast Not Available at This Time
IS NOT AVAILABLE AT THIS TIME


******************************************************************************

KTEB Terminal Weather:
SAUS80 KTEB 281800
METAR KTEB 281751Z 35012G17KT 10SM SCT080 19/01 A2975 RMK AO2 SLP072
     T01940006 10194 20117 58015 $
FTUS31 KTEB 281733 RRB
KTEB 281727Z 2818/2918 35011G18KT P6SM SCT060
     FM290000 31006KT P6SM FEW060 FEW250
     FM291400 33008KT P6SM FEW060
KTEB FCSTER COMMENTS: NO UNSCHEDULED AMENDMENTS EXPECTED.

teb

 


**************************************************************************************

KHPN Terminal Weather:
SAUS70 KHPN 281800 RRB
METAR KHPN 281756Z 32018G25KT 10SM FEW050 17/M01 A2975 RMK AO2 PK WND
     30029/1740 SLP074 T01721006 10172 20106 58010
FTUS80 KHPN 281733 RRF
KHPN 281727Z 2818/2918 33013G20KT P6SM SCT050
     FM290000 31006KT P6SM FEW060 FEW250
     FM291400 31009KT P6SM FEW060 AMD NOT SKED
KHPN FCSTER COMMENTS: NO UNSCHEDULED AMENDMENTS EXPECTED.

HPN


******************************************************************************

KISP Terminal Weather:
SAUS70 KISP 281800 RRC
METAR KISP 281756Z 33009KT 290V350 10SM SCT060 17/01 A2974 RMK AO2
     SLP071 T01670006 10172 20106 58011
FTUS80 KISP 281733 RRG
KISP 281727Z 2818/2918 22009KT P6SM SCT050
     FM290100 30006KT P6SM FEW060 FEW250
     FM291400 32009KT P6SM FEW060
KISP FCSTER COMMENTS: TIMING OF WHEN WINDS SHIFT BACK WNW-NW COULD 
BE OFF BY AN HOUR OR TWO.

ISP

 


ZNY SWAP Season Information

(ZNY SWAP STATEMENT) (Click for PDF File) (ZNY BRIEFING) (Click for PDF File)

*******************************************************
***        NY AIR ROUTE TRAFFIC CONTROL CENTER      ***
***                DAILY SWAP STATEMENT             ***
*******************************************************

- KNYC 261355
WRKSWP

TUESDAY,  APRIL 28, 2015
SWAP IS NOT EXPECTED.
ADDT'L INFO: 
AZEZU-PAEPR-HANRI(L453-M201): NO IMPACTS. 
DITCH: NO IMPACTS. 
EAST GATES: NO IMPACTS.
TOMORROW MORNINGS SWAP OUTLOOK:  SWAP IS NOT EXPECTED.
$$
KS

N90 AirSpace Impacts

N90 ZNY Gate TSTM Forecast    SWAP Day One Forecast

SWAP Day One Forecast    SWAP Day Two Outlook

National Collaborative Convective Forecast Product (CCFP) Forecasts (Mar-Oct)

CAWS - Collaborative Aviation Weather Statement


Vertical Wind Profile
Untitled Document